Ames Lake, Washington
Current Conditions -  °F | °C
As of 1:53 AM on Thursday 18 Dec 2014 (Local Time) from KBFI Reporting Station
Light Rain Light Rain  
Wind Chill: 44°   Ceiling: 1200
Heat Index: 47°   Visibility: 3mi
Dew Point: 44°   Wind: 6mph
Humidity: 90%   Direction: 140°SE
Pressure: 29.94"   Gusts: NA
Location:  47.6833°N, 122.123°W
Report Text: KBFI 180953Z 14005KT 3SM -RA BR SCT005 BKN012 OVC024 08/07 A2994 RMK AO2 SLP139 P0002 T00830067
Loading
Personal Weather Stations






























Interactive Weather Map New forecast layout! Learn more

10-Day Weather Forecast

Advertisements
Track Severe Weather on mobile